Sunday, May 27, 2018, 3:34 PM GMT
Back to Local

CWXC, Onatchiway, Que.

Location: , , Canada Lat: 48.883
Local Time: 3:34 PM GMT (15:34 GMT) Lon: -71.033
Time Zone: GMT Elev: 997 ft

Show me the last for .
Show Coded

Time T Td Feel RH Dir Speed Gust Alt SLP Vis Weather Sky Remarks
2018-05-27 15:00 65 29 - 26 240° 3 - - 30.12 0 None
2018-05-27 14:00 62 27 - 26 210° 3 - - 30.14 0 None
2018-05-27 13:00 58 26 - 29 200° 6 - - 30.16 0 None
2018-05-27 12:00 50 31 - 48 - Calm - - 30.16 0 None
2018-05-27 11:00 43 34 - 69 30° 1 - - 30.16 0 None
2018-05-27 10:00 31 31 - 100 140° 1 - - 30.16 0 None
2018-05-27 09:00 29 29 - 98 110° 1 - - 30.16 0 None
2018-05-27 08:00 29 29 - 98 190° 1 - - 30.15 0 None
2018-05-27 07:00 30 29 - 95 140° 2 - - 30.16 0 None
2018-05-27 06:00 32 29 - 88 120° 2 - - 30.15 0 None
2018-05-27 05:00 31 28 - 88 90° 2 - - 30.14 0 None
2018-05-27 04:00 40 32 - 72 120° 1 - - 30.12 0 None
2018-05-27 03:00 42 31 - 66 80° 1 - - 30.11 0 None
2018-05-27 02:00 42 33 - 71 70° 1 - - 30.09 0 None
2018-05-27 01:00 49 30 - 48 30° 1 - - 30.06 0 None
2018-05-27 00:00 56 25 - 29 60° 3 - - 30.03 0 None
2018-05-26 23:00 56 30 - 36 360° 8 - - 30.00 0 None
2018-05-26 22:00 56 28 - 33 10° 8 - - 29.98 0 None
2018-05-26 21:00 60 26 - 27 20° 7 - - 29.97 0 None
2018-05-26 20:00 58 25 - 28 360° 12 - - 29.95 0 None
2018-05-26 19:00 57 27 - 32 360° 13 18 - 29.93 0 Peak wind: 21 mph (19 kts) from 350° at 35 min
2018-05-26 18:00 55 31 - 41 350° 13 18 - 29.91 0 Peak wind: 20 mph (18 kts) from 340° at 14 min
2018-05-26 17:00 53 28 - 38 350° 14 - - 29.90 0 None
2018-05-26 16:00 51 28 - 40 350° 14 - - 29.88 0 Peak wind: 19 mph (17 kts) from 350° at 34 min

Support USWX by starting your Amazon purchase here.